Time;durP1;ratioP1;P1;durP2;ratioP2;P2;SDS_P1;SDS_P2;PMS_P1;PMS_P2;Temp;Humidity;BMP_temperature;BMP_pressure;BME280_temperature;BME280_humidity;BME280_pressure;Samples;Min_cycle;Max_cycle;Signal;HPM_P1;HPM_P2
2023/10/02 00:01:17;;;;;;;20.30;14.18;;;16.80;94.50;;;;;;5075025;28;20178;-52
2023/10/02 00:06:38;;;;;;;23.70;14.82;;;16.90;94.50;;;;;;5074097;28;20468;-53
2023/10/02 00:09:06;;;;;;;23.05;14.60;;;16.80;94.40;;;;;;5056259;28;20056;-51
2023/10/02 00:11:41;;;;;;;23.73;15.52;;;16.90;94.40;;;;;;5073028;28;20033;-51
2023/10/02 00:14:25;;;;;;;23.27;16.00;;;16.80;94.40;;;;;;5073453;28;20028;-53
2023/10/02 00:17:08;;;;;;;22.08;14.85;;;16.90;94.40;;;;;;5074159;28;20030;-51
2023/10/02 00:19:49;;;;;;;20.58;14.52;;;16.80;94.40;;;;;;5057146;28;20028;-52
2023/10/02 00:22:35;;;;;;;20.00;13.23;;;16.90;94.40;;;;;;5073584;28;20086;-52
2023/10/02 00:25:22;;;;;;;22.02;14.45;;;16.90;94.40;;;;;;5073817;28;20028;-52
2023/10/02 00:27:54;;;;;;;22.45;13.63;;;16.90;94.40;;;;;;5073646;28;20020;-49
2023/10/02 00:30:36;;;;;;;17.45;13.27;;;16.90;94.50;;;;;;5056442;28;20036;-51
2023/10/02 00:33:02;;;;;;;21.45;14.68;;;16.90;94.40;;;;;;5072723;28;20146;-49
2023/10/02 00:35:30;;;;;;;21.05;14.18;;;16.80;94.40;;;;;;5072697;28;20020;-51
2023/10/02 00:37:57;;;;;;;30.65;14.70;;;16.80;94.40;;;;;;5072153;28;20029;-50
2023/10/02 00:40:30;;;;;;;22.48;14.82;;;16.80;94.40;;;;;;5073617;28;20036;-54
2023/10/02 00:45:49;;;;;;;23.33;15.15;;;16.90;94.50;;;;;;5044726;28;20064;-49
2023/10/02 00:48:30;;;;;;;21.77;14.18;;;16.90;94.50;;;;;;5039759;28;20034;-50
2023/10/02 00:51:11;;;;;;;21.60;14.02;;;16.90;94.50;;;;;;5073835;28;20029;-51
2023/10/02 00:53:53;;;;;;;20.25;14.07;;;16.90;94.50;;;;;;5073514;28;20021;-52
2023/10/02 00:56:21;;;;;;;18.27;13.68;;;16.90;94.50;;;;;;5057164;28;20509;-48
2023/10/02 00:59:15;;;;;;;19.88;14.32;;;16.90;94.50;;;;;;5073623;28;20024;-52
2023/10/02 01:01:41;;;;;;;22.73;13.73;;;16.90;94.50;;;;;;5072283;28;20087;-51
2023/10/02 01:04:09;;;;;;;19.15;13.10;;;16.90;94.60;;;;;;5044528;28;20052;-53
2023/10/02 01:09:27;;;;;;;22.88;14.85;;;16.90;94.60;;;;;;5066397;28;20044;-44
2023/10/02 01:12:03;;;;;;;19.77;13.65;;;16.90;94.60;;;;;;5055138;28;20060;-49
2023/10/02 01:17:20;;;;;;;19.80;14.80;;;16.90;94.70;;;;;;5073326;28;20105;-49
2023/10/02 01:20:01;;;;;;;20.38;14.18;;;16.90;94.70;;;;;;5040342;28;20040;-47
2023/10/02 01:22:51;;;;;;;23.38;14.70;;;16.90;94.70;;;;;;5055808;28;20036;-47
2023/10/02 01:25:23;;;;;;;20.58;14.55;;;16.90;94.70;;;;;;5055300;28;20036;-46
2023/10/02 01:27:53;;;;;;;23.73;14.77;;;16.80;94.70;;;;;;5071380;28;20033;-50
2023/10/02 01:30:24;;;;;;;19.52;13.60;;;16.80;94.70;;;;;;5071611;28;20037;-46
2023/10/02 01:33:22;;;;;;;19.75;14.60;;;16.80;94.70;;;;;;5072901;28;20532;-48
2023/10/02 01:36:00;;;;;;;18.10;12.32;;;16.70;94.80;;;;;;5056433;28;20029;-47
2023/10/02 01:38:46;;;;;;;21.00;15.93;;;16.70;94.80;;;;;;5055003;28;20131;-47
2023/10/02 01:41:14;;;;;;;18.60;13.98;;;16.70;94.80;;;;;;5072923;28;20029;-50
2023/10/02 01:43:43;;;;;;;25.08;16.55;;;16.70;94.90;;;;;;5072423;28;20024;-49
2023/10/02 01:46:22;;;;;;;21.35;15.05;;;16.60;94.90;;;;;;5054998;28;20048;-46
2023/10/02 01:48:49;;;;;;;21.30;14.45;;;16.60;94.90;;;;;;5056799;28;20039;-48
2023/10/02 01:51:31;;;;;;;23.00;14.07;;;16.60;95.00;;;;;;5072904;28;20039;-46
2023/10/02 01:54:15;;;;;;;19.63;14.07;;;16.60;95.00;;;;;;5055893;28;20381;-49
2023/10/02 01:56:47;;;;;;;22.90;14.15;;;16.60;95.00;;;;;;5055972;28;20074;-47
2023/10/02 01:59:21;;;;;;;20.48;15.20;;;16.60;95.10;;;;;;5071777;28;20031;-46
2023/10/02 02:02:12;;;;;;;23.90;15.82;;;16.60;95.10;;;;;;5071863;28;20047;-50
2023/10/02 02:04:42;;;;;;;19.20;13.60;;;16.60;95.10;;;;;;5072294;28;20489;-47
2023/10/02 02:07:10;;;;;;;23.08;16.10;;;16.60;95.20;;;;;;5070869;28;20032;-45
2023/10/02 02:09:42;;;;;;;20.02;14.25;;;16.60;95.20;;;;;;5072460;28;20043;-45
2023/10/02 02:12:10;;;;;;;26.30;16.83;;;16.60;95.20;;;;;;5072623;28;20032;-47
2023/10/02 02:14:41;;;;;;;23.05;15.57;;;16.60;95.20;;;;;;5072488;28;20028;-51
2023/10/02 02:17:12;;;;;;;24.52;15.93;;;16.60;95.30;;;;;;5055419;28;20043;-47
2023/10/02 02:19:49;;;;;;;25.90;16.10;;;16.60;95.30;;;;;;5072222;28;20025;-47
2023/10/02 02:22:32;;;;;;;24.48;16.80;;;16.60;95.30;;;;;;5075430;28;20471;-49
2023/10/02 02:24:59;;;;;;;27.02;17.73;;;16.60;95.30;;;;;;5092292;28;20031;-48
2023/10/02 02:27:27;;;;;;;24.27;16.80;;;16.60;95.40;;;;;;5078981;28;20361;-46
2023/10/02 02:29:56;;;;;;;27.45;18.40;;;16.60;95.40;;;;;;5071944;28;20036;-50
2023/10/02 02:35:14;;;;;;;25.52;16.48;;;16.60;95.40;;;;;;5072130;28;20063;-46
2023/10/02 02:37:43;;;;;;;23.52;17.80;;;16.60;95.40;;;;;;5071620;28;20048;-49
2023/10/02 02:40:28;;;;;;;25.58;17.95;;;16.60;95.40;;;;;;5072344;28;20362;-46
2023/10/02 02:42:56;;;;;;;23.90;16.40;;;16.60;95.40;;;;;;5072403;28;20473;-49
2023/10/02 02:45:30;;;;;;;26.02;18.60;;;16.60;95.30;;;;;;5071885;28;20630;-45
2023/10/02 02:48:10;;;;;;;27.00;16.60;;;16.60;95.30;;;;;;5058304;28;20046;-49
2023/10/02 02:50:43;;;;;;;24.88;17.75;;;16.60;95.30;;;;;;5075598;28;20036;-48
2023/10/02 02:56:45;;;;;;;25.08;17.98;;;16.50;95.30;;;;;;5085026;28;20103;-48
2023/10/02 02:59:02;;;;;;;23.83;17.63;;;16.50;95.20;;;;;;5072303;28;20040;-50
2023/10/02 03:01:29;;;;;;;26.05;16.65;;;16.40;95.10;;;;;;5075384;28;20150;-49
2023/10/02 03:03:56;;;;;;;28.80;19.33;;;16.40;95.10;;;;;;5075438;28;20458;-49
2023/10/02 03:06:27;;;;;;;27.08;19.05;;;16.40;95.10;;;;;;5057856;28;20366;-52
2023/10/02 03:08:54;;;;;;;28.05;17.90;;;16.30;95.10;;;;;;5061935;28;20032;-48
2023/10/02 03:11:28;;;;;;;26.02;18.65;;;16.30;95.10;;;;;;5075345;28;20031;-52
2023/10/02 03:14:12;;;;;;;30.30;19.38;;;16.30;95.10;;;;;;5058607;28;20039;-50
2023/10/02 03:16:44;;;;;;;27.73;19.52;;;16.30;95.20;;;;;;5075878;28;20032;-51
2023/10/02 03:19:13;;;;;;;25.42;18.52;;;16.30;95.10;;;;;;5058550;28;20050;-49
2023/10/02 03:21:42;;;;;;;30.52;19.23;;;16.30;95.10;;;;;;5074865;28;20429;-46
2023/10/02 03:24:12;;;;;;;21.80;17.48;;;16.30;95.10;;;;;;5075215;28;20035;-49
2023/10/02 03:26:39;;;;;;;22.08;15.90;;;16.20;95.20;;;;;;5074636;28;20020;-49
2023/10/02 03:29:11;;;;;;;25.40;17.02;;;16.30;95.20;;;;;;5074933;28;20036;-46
2023/10/02 03:31:51;;;;;;;27.25;18.40;;;16.30;95.20;;;;;;5057471;28;20028;-47
2023/10/02 03:34:27;;;;;;;28.88;19.85;;;16.30;95.20;;;;;;5075368;28;20024;-48
2023/10/02 03:37:15;;;;;;;27.17;20.20;;;16.30;95.20;;;;;;5039529;28;20040;-46
2023/10/02 03:39:59;;;;;;;35.22;19.15;;;16.30;95.20;;;;;;5075142;28;20036;-48
2023/10/02 03:42:36;;;;;;;28.85;19.17;;;16.30;95.10;;;;;;5058858;28;20039;-48
2023/10/02 03:45:04;;;;;;;33.17;21.05;;;16.30;95.10;;;;;;5069306;28;20053;-45
2023/10/02 03:47:35;;;;;;;31.83;20.83;;;16.30;95.10;;;;;;5054548;28;20049;-47
2023/10/02 03:50:14;;;;;;;26.65;18.63;;;16.30;95.00;;;;;;5054915;28;20737;-45
2023/10/02 03:52:45;;;;;;;27.52;19.42;;;16.30;95.00;;;;;;5054379;28;20033;-48
2023/10/02 03:55:20;;;;;;;28.55;19.35;;;16.30;95.00;;;;;;5055059;28;20123;-49
2023/10/02 03:57:50;;;;;;;32.33;20.88;;;16.30;95.00;;;;;;5037447;28;20052;-46
2023/10/02 04:00:27;;;;;;;27.30;20.65;;;16.30;95.00;;;;;;5054790;28;20485;-50
2023/10/02 04:02:56;;;;;;;25.85;19.23;;;16.30;94.90;;;;;;5054471;28;20061;-46
2023/10/02 04:05:34;;;;;;;31.25;20.13;;;16.20;94.90;;;;;;5020566;28;20112;-47
2023/10/02 04:08:13;;;;;;;24.50;18.48;;;16.30;94.90;;;;;;5068082;28;20351;-48
2023/10/02 04:11:03;;;;;;;25.45;18.50;;;16.30;94.80;;;;;;5054212;28;20118;-46
2023/10/02 04:13:39;;;;;;;29.08;18.08;;;16.30;94.80;;;;;;5053999;28;20032;-48
2023/10/02 04:18:58;;;;;;;30.55;20.90;;;16.30;94.70;;;;;;5074061;28;20093;-45
2023/10/02 04:21:28;;;;;;;31.65;21.08;;;16.20;94.70;;;;;;5073789;28;20021;-45
2023/10/02 04:23:56;;;;;;;31.02;20.50;;;16.30;94.70;;;;;;5062419;28;20037;-47
2023/10/02 04:26:24;;;;;;;25.27;18.00;;;16.30;94.60;;;;;;5053091;28;20045;-53
2023/10/02 04:29:48;;;;;;;32.80;20.33;;;16.20;94.60;;;;;;5035586;28;20036;-48
2023/10/02 04:32:04;;;;;;;27.70;18.65;;;16.20;94.60;;;;;;5045731;28;20041;-48
2023/10/02 04:34:36;;;;;;;31.23;20.67;;;16.30;94.60;;;;;;5046482;28;20467;-51
2023/10/02 04:37:19;;;;;;;26.50;18.10;;;16.20;94.60;;;;;;5053548;28;20036;-47
2023/10/02 04:42:57;;;;;;;29.48;20.00;;;16.20;94.50;;;;;;5053957;28;20043;-47
2023/10/02 04:45:25;;;;;;;28.20;17.63;;;16.20;94.50;;;;;;5045071;28;20439;-47
2023/10/02 04:48:00;;;;;;;28.95;19.63;;;16.20;94.50;;;;;;5033809;28;20129;-51
2023/10/02 04:55:48;;;;;;;26.88;17.73;;;16.20;94.40;;;;;;5033068;28;20084;-46
2023/10/02 04:58:19;;;;;;;28.70;19.77;;;16.10;94.40;;;;;;5033696;28;20033;-49
2023/10/02 05:03:36;;;;;;;31.17;20.90;;;16.10;94.50;;;;;;5033294;28;20116;-48
2023/10/02 05:06:04;;;;;;;27.50;18.40;;;16.10;94.50;;;;;;4999454;28;20034;-48
2023/10/02 05:08:40;;;;;;;28.25;19.08;;;16.20;94.50;;;;;;5024690;28;20454;-51
2023/10/02 05:11:23;;;;;;;28.42;19.83;;;16.20;94.50;;;;;;5036581;28;20033;-50
2023/10/02 05:13:59;;;;;;;32.10;20.65;;;16.10;94.50;;;;;;5037432;28;20033;-49
2023/10/02 05:16:33;;;;;;;27.02;20.27;;;16.10;94.40;;;;;;5023962;28;20117;-52
2023/10/02 05:19:03;;;;;;;28.73;19.90;;;16.10;94.40;;;;;;5015749;28;20022;-50
2023/10/02 05:21:39;;;;;;;31.63;20.83;;;16.00;94.30;;;;;;5000139;28;20045;-50
2023/10/02 05:24:11;;;;;;;31.17;21.15;;;16.00;94.40;;;;;;5032749;28;20033;-50
2023/10/02 05:26:46;;;;;;;30.73;22.63;;;16.00;94.40;;;;;;5016256;28;20406;-49
2023/10/02 05:29:41;;;;;;;26.27;18.45;;;16.00;94.40;;;;;;5004300;28;20045;-52
2023/10/02 05:32:23;;;;;;;31.23;20.33;;;16.00;94.40;;;;;;5031163;28;20061;-49
2023/10/02 05:35:04;;;;;;;31.60;21.25;;;16.00;94.40;;;;;;5018122;28;20022;-48
2023/10/02 05:37:31;;;;;;;32.47;20.13;;;16.00;94.50;;;;;;5017603;28;20026;-49
2023/10/02 05:48:15;;;;;;;31.70;20.95;;;15.90;94.40;;;;;;5071455;28;20051;-48
2023/10/02 05:50:56;;;;;;;29.45;20.88;;;15.90;94.40;;;;;;5055111;28;20104;-49
2023/10/02 05:53:34;;;;;;;31.95;21.23;;;15.90;94.50;;;;;;5071596;28;20035;-48
2023/10/02 05:58:43;;;;;;;27.58;18.27;;;15.90;94.50;;;;;;5071791;28;20059;-47
2023/10/02 06:01:26;;;;;;;28.98;20.85;;;15.90;94.50;;;;;;5071573;28;20068;-46
2023/10/02 06:04:04;;;;;;;27.45;19.02;;;15.90;94.50;;;;;;5072754;28;20104;-47
2023/10/02 06:06:39;;;;;;;27.08;19.58;;;15.90;94.50;;;;;;5072751;28;20052;-50
2023/10/02 06:09:16;;;;;;;31.15;19.63;;;15.90;94.50;;;;;;5061105;28;20040;-50
2023/10/02 06:12:05;;;;;;;28.23;19.60;;;15.90;94.50;;;;;;5072727;28;20096;-50
2023/10/02 06:14:38;;;;;;;28.05;18.92;;;15.90;94.60;;;;;;5072573;28;20017;-47
2023/10/02 06:17:13;;;;;;;33.33;20.65;;;16.00;94.50;;;;;;5073041;28;20032;-49
2023/10/02 06:19:48;;;;;;;31.10;21.50;;;16.00;94.50;;;;;;5072147;28;20021;-46
2023/10/02 06:22:19;;;;;;;31.27;19.77;;;16.00;94.50;;;;;;5074793;28;20457;-49
2023/10/02 06:24:48;;;;;;;33.22;21.40;;;16.00;94.50;;;;;;5076430;28;20040;-49
2023/10/02 06:27:17;;;;;;;26.57;20.13;;;16.00;94.50;;;;;;5076196;28;20033;-49
2023/10/02 06:29:44;;;;;;;26.90;19.37;;;16.10;94.50;;;;;;5075815;28;20278;-50
2023/10/02 06:32:16;;;;;;;29.77;20.45;;;16.10;94.50;;;;;;5075880;28;20105;-49
2023/10/02 06:34:44;;;;;;;29.73;20.55;;;16.20;94.50;;;;;;5058992;28;20032;-49
2023/10/02 06:37:24;;;;;;;30.15;19.63;;;16.20;94.40;;;;;;5076172;28;20450;-50
2023/10/02 06:40:14;;;;;;;27.88;18.75;;;16.30;94.40;;;;;;5061219;28;20052;-46
2023/10/02 06:42:52;;;;;;;33.60;20.80;;;16.40;94.40;;;;;;5076132;28;20033;-51
2023/10/02 06:45:25;;;;;;;26.08;18.38;;;16.40;94.40;;;;;;5075572;28;20041;-48
2023/10/02 06:47:56;;;;;;;29.13;19.10;;;16.50;94.40;;;;;;5058428;28;20041;-49
2023/10/02 06:50:35;;;;;;;30.23;20.23;;;16.50;94.40;;;;;;5074805;28;20024;-52
2023/10/02 06:53:06;;;;;;;30.55;19.83;;;16.60;94.30;;;;;;5075347;28;20059;-52
2023/10/02 06:55:39;;;;;;;30.10;19.08;;;16.60;94.20;;;;;;5076241;28;20051;-48
2023/10/02 06:58:07;;;;;;;33.53;20.90;;;16.70;94.10;;;;;;5075765;28;20082;-50
2023/10/02 07:01:01;;;;;;;30.40;19.33;;;16.70;94.00;;;;;;5057756;28;20085;-50
2023/10/02 07:03:28;;;;;;;29.88;20.67;;;16.80;93.90;;;;;;5075488;28;20036;-50
2023/10/02 07:05:58;;;;;;;29.25;19.85;;;16.80;93.80;;;;;;5075265;28;20099;-49
2023/10/02 07:08:30;;;;;;;;;;;16.90;93.80;;;;;;5075325;28;20124;-53
2023/10/02 07:10:58;;;;;;;28.15;17.98;;;16.90;93.60;;;;;;5074522;28;19962;-49
2023/10/02 07:13:25;;;;;;;24.35;18.83;;;16.90;93.60;;;;;;5074587;28;20445;-52
2023/10/02 07:15:59;;;;;;;27.42;18.40;;;16.90;93.40;;;;;;5072679;28;20461;-52
2023/10/02 07:18:49;;;;;;;26.90;18.90;;;16.90;93.30;;;;;;5075256;28;20040;-51
2023/10/02 07:21:21;;;;;;;;;;;16.90;93.30;;;;;;5061651;28;20048;-51
2023/10/02 07:24:25;;;;;;;25.85;17.80;;;17.00;93.20;;;;;;5074029;28;20486;-49
2023/10/02 07:26:52;;;;;;;28.53;19.43;;;17.10;93.20;;;;;;5074411;28;20032;-51
2023/10/02 07:29:19;;;;;;;27.13;17.65;;;17.20;93.00;;;;;;5057184;28;20514;-51
2023/10/02 07:31:45;;;;;;;29.48;18.77;;;17.30;93.00;;;;;;5074677;28;20368;-53
2023/10/02 07:34:15;;;;;;;26.98;18.73;;;17.40;92.60;;;;;;5074366;28;20362;-52
2023/10/02 07:36:48;;;;;;;27.92;18.70;;;17.40;92.50;;;;;;5074515;28;20089;-52
2023/10/02 07:42:01;;;;;;;25.42;17.85;;;17.80;92.20;;;;;;5074497;28;20063;-54
2023/10/02 07:44:36;;;;;;;27.08;19.10;;;17.90;91.50;;;;;;5074313;28;20024;-54
2023/10/02 07:47:21;;;;;;;25.42;17.25;;;18.00;91.20;;;;;;5074168;28;20036;-54
2023/10/02 07:49:49;;;;;;;23.60;17.48;;;18.10;91.00;;;;;;5073976;28;20104;-55
2023/10/02 07:55:23;;;;;;;24.73;17.58;;;18.10;90.30;;;;;;5030836;28;20030;-54
2023/10/02 07:57:58;;;;;;;20.90;15.45;;;18.20;90.30;;;;;;5032046;28;20034;-54
2023/10/02 08:00:40;;;;;;;29.88;17.92;;;18.40;90.40;;;;;;5015601;28;20029;-53
2023/10/02 08:03:42;;;;;;;23.45;16.95;;;18.40;90.30;;;;;;5018538;28;20088;-53
2023/10/02 08:06:21;;;;;;;24.67;16.67;;;18.40;90.00;;;;;;5020920;28;20372;-54
2023/10/02 08:09:35;;;;;;;22.05;16.92;;;18.60;89.50;;;;;;5032193;28;20041;-55
2023/10/02 08:11:54;;;;;;;28.50;18.75;;;18.70;89.40;;;;;;5031852;28;20044;-54
2023/10/02 08:17:59;;;;;;;25.95;17.25;;;19.00;88.80;;;;;;5032183;28;20052;-52
2023/10/02 08:20:16;;;;;;;22.63;17.30;;;19.00;88.20;;;;;;5019322;28;20049;-49
2023/10/02 08:22:48;;;;;;;22.98;16.80;;;19.10;87.90;;;;;;5031869;28;20116;-53
2023/10/02 08:25:16;;;;;;;23.95;16.05;;;19.20;87.90;;;;;;5030876;28;20029;-50
2023/10/02 08:28:06;;;;;;;23.55;17.20;;;19.10;87.50;;;;;;5031518;28;20033;-51
2023/10/02 08:30:36;;;;;;;25.67;16.65;;;19.10;87.20;;;;;;5073536;28;20017;-50
2023/10/02 08:33:19;;;;;;;26.98;16.75;;;19.20;87.70;;;;;;5074197;28;20035;-54
2023/10/02 08:35:51;;;;;;;26.58;16.73;;;19.40;87.00;;;;;;5058097;28;20115;-53
2023/10/02 08:38:24;;;;;;;;;;;19.50;87.10;;;;;;5081211;28;20511;-52
2023/10/02 08:41:00;;;;;;;25.13;16.90;;;19.60;86.80;;;;;;5077515;28;19990;-49
2023/10/02 08:43:45;;;;;;;23.27;15.73;;;19.70;86.30;;;;;;5076483;28;20024;-49
2023/10/02 08:46:21;;;;;;;22.05;16.92;;;19.90;86.50;;;;;;5066138;28;20072;-51
2023/10/02 08:49:00;;;;;;;24.98;16.38;;;19.90;85.10;;;;;;5052689;28;20032;-50
2023/10/02 08:51:53;;;;;;;24.67;17.33;;;20.00;85.10;;;;;;5052655;28;20029;-52
2023/10/02 08:54:27;;;;;;;24.13;16.20;;;20.30;84.60;;;;;;5053634;28;20548;-53
2023/10/02 08:57:18;;;;;;;26.10;17.13;;;20.40;84.60;;;;;;5053431;28;20112;-50
2023/10/02 08:59:55;;;;;;;21.75;14.30;;;20.60;84.50;;;;;;5053174;28;20238;-51
2023/10/02 09:02:40;;;;;;;25.42;15.13;;;20.70;83.70;;;;;;5052934;28;20055;-51
2023/10/02 09:05:13;;;;;;;29.05;15.90;;;20.90;83.10;;;;;;5053373;28;20040;-51
2023/10/02 09:08:02;;;;;;;25.85;16.92;;;21.10;82.60;;;;;;5052632;28;20094;-53
2023/10/02 09:10:30;;;;;;;27.10;17.00;;;21.10;81.90;;;;;;5056003;28;20032;-52
2023/10/02 09:13:27;;;;;;;22.25;15.65;;;21.30;81.10;;;;;;5073159;28;20040;-48
2023/10/02 09:15:56;;;;;;;22.25;16.20;;;21.40;82.20;;;;;;5071942;28;20035;-55
2023/10/02 09:21:39;;;;;;;22.60;15.63;;;21.40;81.10;;;;;;5052748;28;20075;-48
2023/10/02 09:24:23;;;;;;;23.85;16.55;;;21.50;81.70;;;;;;5052120;28;20060;-51
2023/10/02 09:26:57;;;;;;;21.55;14.80;;;21.80;81.80;;;;;;5053036;28;20033;-54
2023/10/02 09:29:23;;;;;;;22.73;16.90;;;21.90;80.70;;;;;;5068048;28;20029;-49
2023/10/02 09:31:51;;;;;;;23.52;15.43;;;22.00;79.70;;;;;;5053217;28;20120;-54
2023/10/02 09:34:17;;;;;;;22.17;15.00;;;21.90;79.80;;;;;;5052353;28;20044;-51
2023/10/02 09:36:54;;;;;;;24.10;16.20;;;21.80;80.20;;;;;;5070019;28;20462;-51
2023/10/02 09:39:31;;;;;;;24.27;15.73;;;21.70;79.30;;;;;;5059139;28;20037;-50
2023/10/02 09:42:08;;;;;;;22.92;15.85;;;21.80;80.50;;;;;;5052779;28;20104;-48
2023/10/02 09:44:48;;;;;;;23.92;15.52;;;21.80;80.30;;;;;;5054083;28;20045;-53
2023/10/02 09:47:30;;;;;;;24.95;14.82;;;21.90;80.50;;;;;;5055071;28;20035;-54
2023/10/02 09:50:14;;;;;;;23.23;15.35;;;22.10;81.10;;;;;;5073699;28;20666;-51
2023/10/02 09:53:02;;;;;;;21.27;14.82;;;22.30;80.60;;;;;;5078359;28;20085;-52
2023/10/02 09:55:55;;;;;;;24.27;14.90;;;22.30;79.40;;;;;;5064157;28;20025;-50
2023/10/02 09:58:49;;;;;;;22.00;15.65;;;22.10;79.30;;;;;;5076949;28;20094;-49
2023/10/02 10:01:34;;;;;;;24.50;15.38;;;21.90;79.90;;;;;;5058289;28;20056;-51
2023/10/02 10:04:07;;;;;;;24.73;16.33;;;21.90;79.90;;;;;;5096856;28;20468;-49
2023/10/02 10:06:49;;;;;;;22.30;14.43;;;21.50;80.30;;;;;;5084067;28;20037;-51
2023/10/02 10:11:45;;;;;;;22.98;15.38;;;21.00;82.50;;;;;;5076481;28;20051;-50
2023/10/02 10:14:54;;;;;;;21.55;14.85;;;21.10;83.00;;;;;;5076248;28;20094;-52
2023/10/02 10:17:23;;;;;;;22.33;13.32;;;21.20;83.40;;;;;;5076050;28;20032;-52
2023/10/02 10:20:18;;;;;;;18.52;13.55;;;21.40;83.30;;;;;;5076358;28;20039;-52
2023/10/02 10:22:55;;;;;;;18.98;14.52;;;21.70;83.50;;;;;;5076403;28;20352;-53
2023/10/02 10:25:32;;;;;;;23.35;15.80;;;21.90;81.70;;;;;;5076622;28;20063;-54
2023/10/02 10:28:05;;;;;;;20.48;14.82;;;21.90;80.50;;;;;;5076071;28;20039;-51
2023/10/02 10:30:51;;;;;;;22.48;16.83;;;21.90;81.00;;;;;;5075813;28;20374;-53
2023/10/02 10:33:40;;;;;;;21.67;15.82;;;22.00;81.30;;;;;;5076405;28;20412;-52
2023/10/02 10:36:33;;;;;;;21.88;15.05;;;22.30;81.20;;;;;;5075569;28;20114;-54
2023/10/02 10:39:30;;;;;;;26.92;16.75;;;22.40;80.20;;;;;;5058362;28;20028;-51
2023/10/02 10:41:57;;;;;;;23.92;16.15;;;22.60;79.50;;;;;;5075889;28;20825;-50
2023/10/02 10:44:33;;;;;;;21.83;15.65;;;22.60;79.00;;;;;;5075602;28;20407;-49
2023/10/02 10:47:04;;;;;;;21.25;14.27;;;22.60;78.80;;;;;;5075639;28;20441;-52
2023/10/02 10:49:53;;;;;;;22.23;16.02;;;22.70;79.20;;;;;;5076038;28;20032;-52
2023/10/02 10:52:39;;;;;;;22.35;14.65;;;22.70;78.60;;;;;;5075710;28;20146;-55
2023/10/02 10:55:32;;;;;;;19.70;14.00;;;22.70;78.70;;;;;;5075256;28;20365;-51
2023/10/02 10:58:01;;;;;;;22.73;13.70;;;22.60;79.50;;;;;;5029256;28;20044;-50
2023/10/02 11:00:35;;;;;;;23.63;15.38;;;22.70;79.10;;;;;;5075726;28;20347;-51
2023/10/02 11:03:08;;;;;;;20.77;15.18;;;22.80;77.80;;;;;;5059059;28;20036;-55
2023/10/02 11:05:38;;;;;;;23.75;16.35;;;22.70;78.40;;;;;;5062035;28;20322;-51
2023/10/02 11:08:25;;;;;;;19.52;14.02;;;22.60;78.60;;;;;;5056972;28;20043;-54
2023/10/02 11:11:10;;;;;;;19.23;14.73;;;22.50;79.70;;;;;;5075829;28;20049;-51
2023/10/02 11:14:01;;;;;;;23.75;16.08;;;22.30;79.40;;;;;;5075597;28;20027;-49
2023/10/02 11:16:36;;;;;;;;;;;22.40;80.40;;;;;;5061088;28;20032;-53
2023/10/02 11:22:25;;;;;;;19.42;13.98;;;22.60;79.60;;;;;;5075207;28;20412;-52
2023/10/02 11:24:57;;;;;;;25.70;13.55;;;22.50;78.20;;;;;;5075441;28;20039;-52
2023/10/02 11:27:24;;;;;;;19.67;13.93;;;22.60;79.90;;;;;;5074768;28;20028;-53
2023/10/02 11:30:03;;;;;;;21.52;15.43;;;22.50;78.80;;;;;;5075265;28;20111;-52
2023/10/02 11:33:04;;;;;;;23.38;14.43;;;22.50;79.20;;;;;;5060195;28;20044;-51
2023/10/02 11:35:43;;;;;;;18.50;14.43;;;22.50;79.20;;;;;;5075168;28;20384;-57
2023/10/02 11:38:11;;;;;;;20.10;14.50;;;22.40;79.00;;;;;;5075117;28;20385;-53
2023/10/02 11:40:38;;;;;;;19.60;13.93;;;22.40;79.70;;;;;;5075192;28;20032;-54
2023/10/02 11:43:05;;;;;;;17.73;13.27;;;22.40;80.20;;;;;;5074971;28;20038;-52
2023/10/02 11:45:36;;;;;;;17.92;13.10;;;22.50;80.10;;;;;;5074605;28;20048;-53
2023/10/02 11:48:03;;;;;;;20.20;13.63;;;22.40;79.20;;;;;;5074840;28;20028;-56
2023/10/02 11:50:29;;;;;;;18.15;14.38;;;22.40;79.90;;;;;;5074618;28;20024;-55
2023/10/02 11:52:59;;;;;;;19.27;14.70;;;22.40;79.50;;;;;;5074682;28;20028;-52
2023/10/02 11:55:30;;;;;;;21.42;14.82;;;22.40;79.80;;;;;;5074598;28;20373;-52
2023/10/02 11:57:55;;;;;;;20.48;14.32;;;22.30;79.70;;;;;;5073343;28;20052;-51
2023/10/02 12:00:24;;;;;;;24.48;16.33;;;22.40;80.30;;;;;;5074483;28;20073;-53
2023/10/02 12:02:51;;;;;;;23.27;14.30;;;22.40;80.20;;;;;;5074611;28;20028;-52
2023/10/02 12:05:19;;;;;;;21.83;15.00;;;22.50;80.30;;;;;;5074326;28;20028;-56
2023/10/02 12:07:46;;;;;;;18.83;12.70;;;22.50;80.30;;;;;;5056737;28;20036;-55
2023/10/02 12:10:15;;;;;;;22.42;13.93;;;22.50;80.10;;;;;;5074242;28;20025;-53
2023/10/02 12:12:45;;;;;;;20.50;13.50;;;22.60;80.20;;;;;;5074392;28;20484;-56
2023/10/02 12:15:19;;;;;;;17.80;11.98;;;22.60;80.00;;;;;;5073759;28;20433;-50
2023/10/02 12:17:46;;;;;;;20.15;13.77;;;22.70;80.70;;;;;;5072138;28;20040;-49
2023/10/02 12:20:22;;;;;;;23.17;15.10;;;22.70;79.20;;;;;;5092581;28;20024;-50
2023/10/02 12:22:50;;;;;;;16.80;12.77;;;22.60;79.80;;;;;;5089542;28;20032;-54
2023/10/02 12:25:20;;;;;;;22.33;14.57;;;22.50;79.80;;;;;;5073944;28;20031;-49
2023/10/02 12:27:52;;;;;;;19.10;14.07;;;22.50;80.20;;;;;;5073842;28;20036;-56
2023/10/02 12:30:19;;;;;;;21.77;13.38;;;22.40;80.30;;;;;;5073948;28;20105;-52
2023/10/02 12:32:49;;;;;;;20.02;15.55;;;22.40;80.30;;;;;;5073945;28;20402;-55
2023/10/02 12:35:17;;;;;;;21.90;14.98;;;22.30;80.30;;;;;;5073644;28;20046;-54
2023/10/02 12:37:46;;;;;;;21.00;14.43;;;22.20;80.40;;;;;;5072629;28;20072;-49
2023/10/02 12:40:18;;;;;;;25.95;15.68;;;22.20;80.80;;;;;;5073708;28;20056;-52
2023/10/02 12:42:50;;;;;;;22.17;15.40;;;22.20;80.70;;;;;;5073648;28;20452;-54
2023/10/02 12:45:17;;;;;;;18.92;16.10;;;22.20;80.60;;;;;;5073287;28;20059;-49
2023/10/02 12:47:46;;;;;;;21.80;16.15;;;22.20;80.70;;;;;;5072418;28;20028;-53
2023/10/02 12:50:13;;;;;;;23.77;17.15;;;22.30;80.90;;;;;;5073660;28;20032;-52
2023/10/02 12:52:40;;;;;;;25.55;16.23;;;22.20;80.40;;;;;;5073356;28;20372;-51
2023/10/02 12:55:09;;;;;;;25.35;15.73;;;22.20;80.90;;;;;;5073874;28;20038;-55
2023/10/02 12:57:36;;;;;;;21.50;15.80;;;22.30;80.90;;;;;;5073294;28;20437;-50
2023/10/02 13:00:16;;;;;;;17.13;13.68;;;22.30;80.80;;;;;;5072984;28;20040;-54
2023/10/02 13:02:46;;;;;;;16.98;13.75;;;22.20;81.30;;;;;;5073951;28;20024;-53
2023/10/02 13:05:13;;;;;;;21.73;14.52;;;22.30;81.20;;;;;;5073550;28;20059;-51
2023/10/02 13:07:41;;;;;;;24.10;15.85;;;22.30;81.30;;;;;;5071872;28;20119;-55
2023/10/02 13:10:10;;;;;;;21.50;15.40;;;22.40;81.20;;;;;;5055503;28;20021;-56
2023/10/02 13:12:38;;;;;;;;;;;22.30;81.10;;;;;;5093771;28;20123;-52
2023/10/02 13:15:15;;;;;;;20.17;14.70;;;22.20;81.20;;;;;;5093540;28;20257;-56
2023/10/02 13:17:45;;;;;;;20.73;13.48;;;22.20;81.20;;;;;;5085960;28;20491;-52
2023/10/02 13:20:10;;;;;;;22.90;16.95;;;22.20;81.50;;;;;;5072763;28;20039;-49
2023/10/02 13:22:38;;;;;;;25.90;16.33;;;22.20;81.40;;;;;;5073035;28;20445;-50
2023/10/02 13:25:05;;;;;;;22.48;14.88;;;22.20;81.40;;;;;;5055288;28;20105;-53
2023/10/02 13:27:31;;;;;;;22.60;14.35;;;22.20;81.50;;;;;;5072528;28;20028;-53
2023/10/02 13:29:59;;;;;;;22.60;15.75;;;22.20;81.50;;;;;;5071347;28;20036;-53
2023/10/02 13:32:26;;;;;;;19.23;13.82;;;22.10;81.20;;;;;;5073157;28;20086;-49
2023/10/02 13:34:56;;;;;;;22.52;15.75;;;22.10;81.70;;;;;;5072195;28;20028;-49
2023/10/02 13:37:23;;;;;;;22.52;14.73;;;22.10;81.60;;;;;;5055200;28;20596;-52
2023/10/02 13:39:51;;;;;;;20.50;14.95;;;22.10;81.80;;;;;;5073056;28;20090;-53
2023/10/02 13:42:19;;;;;;;19.13;13.32;;;22.20;81.80;;;;;;5072566;28;20086;-51
2023/10/02 13:44:45;;;;;;;23.20;15.63;;;22.20;81.80;;;;;;5072044;28;20481;-56
2023/10/02 13:47:14;;;;;;;21.40;14.98;;;22.20;81.20;;;;;;5072625;28;20054;-52
2023/10/02 13:49:39;;;;;;;27.23;16.25;;;22.00;81.20;;;;;;5071176;28;20463;-54
2023/10/02 13:52:05;;;;;;;23.25;16.42;;;22.00;81.30;;;;;;5072262;28;20068;-54
2023/10/02 13:54:32;;;;;;;23.25;14.65;;;21.90;81.60;;;;;;5072587;28;20078;-55
2023/10/02 13:57:02;;;;;;;20.08;13.88;;;21.90;81.70;;;;;;5071306;28;20044;-53
2023/10/02 13:59:33;;;;;;;25.38;16.80;;;21.80;82.10;;;;;;5075686;28;20047;-51
2023/10/02 14:01:59;;;;;;;18.70;13.85;;;21.80;82.00;;;;;;5092688;28;20035;-51
2023/10/02 14:04:29;;;;;;;19.35;13.93;;;21.80;82.40;;;;;;5088392;28;20025;-49
2023/10/02 14:06:59;;;;;;;21.75;14.95;;;21.80;82.30;;;;;;5071503;28;20386;-56